SABESUMU

Guest
Details From SABE - Aeroparque Jorge Newbery
To SUMU - Montevideo Carrasco Intl
Flight Number -
Tags Generated
Created
Modified
Stats Distance 119 nm / 221 km
Max Altitude 0 ft / 0 m
Waypoints 2
Social Downloads 17
Likes 0
Share VATSIM

Download

Looking for another format? Having issues loading an existing format? Contact us
Advertisement - Login to hide

Notes

Generated

Route

SABE SUMU

ID Type Via Altitude Latitude Longitude Leg Dist Tot Dist Heading (true) Name
O SABE APT - 0 ft / 0 m -34.55416˚ -58.42526˚ - 0 nm - -
O SUMU APT - 0 ft / 0 m -34.83742˚ -56.03572˚ 119 nm 119 nm 99° / 98° -

Altitude Profile

Advertisement - Login to hide

SABE

Details ICAO SABE (AEP)
Name Aeroparque Jorge Newbery
Region Argentina
Timezone Unknown (UTC+0.0)
Stats Elevation 17 ft / 5 m (AMSL)
Location -34.559414° -58.415749°
Runways 1
Magnetic Variation 8.979° W

METAR

SABE 110600Z 16010KT CAVOK 14/08 Q1014

Decode

TAF

TAF SABE 110500Z 1106/1206 16015KT CAVOK TX27/1118Z TN13/1110Z BECMG 1110/1112 09010KT BECMG 1122/1200 09015KT

Decode

Departure Runways

ID Width Length Bearing (true) Bearing (mag) Surface Threshold Offset Overrun Length
13 131 ft / 40 m 6,882 ft / 2,098 m 123.87° 132.85° Concrete 0 ft / 0 m 791 ft / 241 m
31 131 ft / 40 m 6,882 ft / 2,098 m 303.86° 312.84° Concrete 991 ft / 302 m 0 ft / 0 m

SUMU

Details ICAO SUMU (MVD)
Name Montevideo Carrasco Intl
Region Uruguay
Timezone America/Montevideo (UTC-3.0)
Stats Elevation 105 ft / 32 m (AMSL)
Location -34.834888° -56.027727°
Runways 3
Magnetic Variation 10.819° W

METAR

SUMU 110600Z 18015KT 9999 SCT030 17/11 Q1012 NOSIG

Decode

TAF

TAF SUMU 102330Z 1100/1124 18018G28KT CAVOK TX23/1118Z TN14/1109Z BECMG 1112/1114 12015KT

Decode

Destination Runways

ID Width Length Bearing (true) Bearing (mag) Surface Threshold Offset Overrun Length
01 148 ft / 45 m 7,406 ft / 2,257 m 359.19° 10.01° Asphalt 300 ft / 91 m 195 ft / 59 m
06 148 ft / 45 m 10,497 ft / 3,199 m 53.24° 64.06° Asphalt 1,150 ft / 351 m 500 ft / 152 m
10 148 ft / 45 m 5,578 ft / 1,700 m 90.77° 101.59° Concrete 200 ft / 61 m 0 ft / 0 m
19 148 ft / 45 m 7,406 ft / 2,257 m 179.19° 190.01° Asphalt 300 ft / 91 m 190 ft / 58 m
24 148 ft / 45 m 10,497 ft / 3,199 m 233.23° 244.05° Asphalt 490 ft / 149 m 0 ft / 0 m
28 148 ft / 45 m 5,578 ft / 1,700 m 270.76° 281.58° Concrete 200 ft / 61 m 0 ft / 0 m

Approach Navaids

Runway Type Ident Frequency Range Bearing (true) Bearing (mag) Slope Elevation
19 Localiser IMVD 111.10 MHz 18 nm / 33 km 179.51° 190.33° - 105 ft / 32 m (AMSL)
19 Glidescope IMVD 111.10 MHz 10 nm / 19 km 179.19° 190.01° 3.00° 105 ft / 32 m (AMSL)
19 DME IMVD 111.10 MHz 18 nm / 33 km - - - 66 ft / 20 m (AMSL)
24 Localiser ICAR 109.90 MHz 18 nm / 33 km 233.34° 244.16° - 105 ft / 32 m (AMSL)
24 Glidescope ICAR 109.90 MHz 10 nm / 19 km 233.24° 244.05° 3.00° 105 ft / 32 m (AMSL)

Popular Alternatives